Saraland, AL (36571)

3:34 PM CDT on April 25, 2017 (GMT -0500)
Villa Oaks/Saraland | | Change Station

Elev 0 ft 30.81 °N, 88.09 °W | Updated 36 seconds ago

Clear
Clear
80.5 °F
Feels Like 81 °F
N
2.0
Wind Variable Wind from South

Today
High -- | Low -- °F
--% Chance of Precip.
Yesterday
High -- | Low -- °F
Precip. -- in
Pressure 29.80 in
Visibility 10.0 miles
Clouds Few 5000 ft
Heat Index 81 °F
Dew Point 61 °F
Humidity 51%
Rainfall 0.00 in
Snow Depth Not available.
6:13 AM 7:27 PM
Waning Crescent, 1% visible
METAR KBFM 251953Z 22008KT 190V250 10SM FEW050 27/13 A2980 RMK AO2 SLP091 T02670128
Pressure 29.80 in
Visibility 10.0 miles
Clouds Few 5000 ft
Heat Index 81 °F
Dew Point 61 °F
Humidity 51%
Rainfall 0.00 in
Snow Depth Not available.
6:13 AM 7:27 PM
Waning Crescent, 1% visible
METAR KBFM 251953Z 22008KT 190V250 10SM FEW050 27/13 A2980 RMK AO2 SLP091 T02670128

Get Severe Weather Alerts

Thanks for signing up!

Be on the lookout for a verification email in your inbox.

You'll start receiving the daily forecast at 8 AM.

×

10-Day Weather Forecast

Almanac

Astronomy

Apr. 25, 2017 Rise Set
Actual Time
Civil Twilight
Nautical Twilight
Astronomical Twilight
Moon
Length of Visible Light
Length of Day
Tomorrow will be .
, % of the Moon is Illuminated

Today's Extremes

State Highs State Lows

Community

WunderPhotos

WunderBlog® & News

Nearby

Air Quality

  Air Quality AQ Index Pollutant
Not available.

Snow Depth

Station Depth Elevation

Earthquake Activity

City Distance Mag. Time & Date
Minimum magnitude displayed is 2.5.

Coastal Water Temperatures

Place Temperature

Stations

Nearby Weather Stations

Station Location Temp. Windchill Dew Point Humidity Wind Precip. Elev Updated Type
                   

Watches & Warnings

There are currently no watches in effect.